sensor_id;sensor_type;location;lat;lon;timestamp;pressure;altitude;pressure_sealevel;temperature;humidity
80137;BME280;69466;55.948;37.484;2023-06-22T00:02:00;99785.50;;;12.38;71.44
80137;BME280;69466;55.948;37.484;2023-06-22T00:04:26;99785.66;;;12.25;72.06
80137;BME280;69466;55.948;37.484;2023-06-22T00:06:52;99793.66;;;12.20;72.12
80137;BME280;69466;55.948;37.484;2023-06-22T00:09:18;99786.81;;;12.18;72.13
80137;BME280;69466;55.948;37.484;2023-06-22T00:11:45;99787.19;;;12.21;72.51
80137;BME280;69466;55.948;37.484;2023-06-22T00:14:10;99790.94;;;12.20;72.25
80137;BME280;69466;55.948;37.484;2023-06-22T00:16:36;99798.59;;;12.12;72.63
80137;BME280;69466;55.948;37.484;2023-06-22T00:19:02;99791.09;;;12.07;72.47
80137;BME280;69466;55.948;37.484;2023-06-22T00:21:29;99789.22;;;12.08;72.83
80137;BME280;69466;55.948;37.484;2023-06-22T00:23:55;99788.59;;;12.06;72.76
80137;BME280;69466;55.948;37.484;2023-06-22T00:26:23;99788.22;;;12.02;72.70
80137;BME280;69466;55.948;37.484;2023-06-22T00:28:49;99780.69;;;12.04;72.52
80137;BME280;69466;55.948;37.484;2023-06-22T00:31:14;99779.91;;;11.97;72.56
80137;BME280;69466;55.948;37.484;2023-06-22T00:33:40;99782.41;;;11.98;72.63
80137;BME280;69466;55.948;37.484;2023-06-22T00:36:06;99776.78;;;11.93;72.39
80137;BME280;69466;55.948;37.484;2023-06-22T00:38:38;99782.25;;;11.93;72.46
80137;BME280;69466;55.948;37.484;2023-06-22T00:41:08;99779.72;;;11.92;72.54
80137;BME280;69466;55.948;37.484;2023-06-22T00:43:35;99778.31;;;11.89;72.76
80137;BME280;69466;55.948;37.484;2023-06-22T00:46:02;99777.94;;;11.86;72.27
80137;BME280;69466;55.948;37.484;2023-06-22T00:48:29;99779.44;;;11.82;72.92
80137;BME280;69466;55.948;37.484;2023-06-22T00:50:54;99770.28;;;11.76;73.18
80137;BME280;69466;55.948;37.484;2023-06-22T00:53:23;99773.59;;;11.78;73.28
80137;BME280;69466;55.948;37.484;2023-06-22T00:55:49;99774.22;;;11.80;72.73
80137;BME280;69466;55.948;37.484;2023-06-22T00:58:19;99773.75;;;11.83;72.59
80137;BME280;69466;55.948;37.484;2023-06-22T01:00:48;99780.84;;;11.84;72.97
80137;BME280;69466;55.948;37.484;2023-06-22T01:03:14;99779.66;;;11.80;72.67
80137;BME280;69466;55.948;37.484;2023-06-22T01:05:42;99785.91;;;11.81;72.18
80137;BME280;69466;55.948;37.484;2023-06-22T01:08:20;99787.28;;;11.90;72.41
80137;BME280;69466;55.948;37.484;2023-06-22T01:11:19;99789.84;;;11.85;72.21
80137;BME280;69466;55.948;37.484;2023-06-22T01:14:01;99776.94;;;11.80;72.55
80137;BME280;69466;55.948;37.484;2023-06-22T01:16:31;99791.13;;;11.82;72.61
80137;BME280;69466;55.948;37.484;2023-06-22T01:22:05;99795.59;;;11.77;72.54
80137;BME280;69466;55.948;37.484;2023-06-22T01:24:48;99766.16;;;11.67;72.45
80137;BME280;69466;55.948;37.484;2023-06-22T01:27:50;99794.44;;;11.84;72.32
80137;BME280;69466;55.948;37.484;2023-06-22T01:30:19;99794.41;;;11.91;72.11
80137;BME280;69466;55.948;37.484;2023-06-22T01:32:45;99789.13;;;11.96;71.81
80137;BME280;69466;55.948;37.484;2023-06-22T01:35:12;99782.63;;;11.97;71.97
80137;BME280;69466;55.948;37.484;2023-06-22T01:37:38;99795.63;;;11.95;71.72
80137;BME280;69466;55.948;37.484;2023-06-22T01:40:05;99784.38;;;11.91;71.70
80137;BME280;69466;55.948;37.484;2023-06-22T01:42:34;99784.41;;;11.85;71.73
80137;BME280;69466;55.948;37.484;2023-06-22T01:45:01;99800.16;;;12.01;71.47
80137;BME280;69466;55.948;37.484;2023-06-22T01:47:31;99781.72;;;12.03;71.35
80137;BME280;69466;55.948;37.484;2023-06-22T01:49:58;99782.25;;;12.12;71.58
80137;BME280;69466;55.948;37.484;2023-06-22T01:52:24;99783.25;;;12.17;71.28
80137;BME280;69466;55.948;37.484;2023-06-22T01:54:50;99776.75;;;12.18;71.24
80137;BME280;69466;55.948;37.484;2023-06-22T01:57:16;99781.75;;;12.21;71.01
80137;BME280;69466;55.948;37.484;2023-06-22T01:59:51;99789.84;;;12.28;70.80
80137;BME280;69466;55.948;37.484;2023-06-22T02:02:22;99782.88;;;12.32;70.49
80137;BME280;69466;55.948;37.484;2023-06-22T02:05:01;99774.19;;;12.41;70.17
80137;BME280;69466;55.948;37.484;2023-06-22T02:07:33;99774.25;;;12.53;70.08
80137;BME280;69466;55.948;37.484;2023-06-22T02:10:02;99771.53;;;12.53;69.92
80137;BME280;69466;55.948;37.484;2023-06-22T02:12:30;99754.72;;;12.56;69.76
80137;BME280;69466;55.948;37.484;2023-06-22T02:14:57;99763.56;;;12.70;69.92
80137;BME280;69466;55.948;37.484;2023-06-22T02:17:26;99769.06;;;12.81;69.41
80137;BME280;69466;55.948;37.484;2023-06-22T02:19:52;99753.25;;;12.90;69.04
80137;BME280;69466;55.948;37.484;2023-06-22T02:22:18;99748.63;;;12.91;68.88
80137;BME280;69466;55.948;37.484;2023-06-22T02:24:44;99757.16;;;12.94;69.26
80137;BME280;69466;55.948;37.484;2023-06-22T02:27:09;99757.78;;;13.08;68.80
80137;BME280;69466;55.948;37.484;2023-06-22T02:29:36;99761.06;;;13.16;68.86
80137;BME280;69466;55.948;37.484;2023-06-22T02:32:02;99739.88;;;13.18;68.39
80137;BME280;69466;55.948;37.484;2023-06-22T02:34:29;99746.16;;;13.30;68.21
80137;BME280;69466;55.948;37.484;2023-06-22T02:36:55;99752.72;;;13.41;68.11
80137;BME280;69466;55.948;37.484;2023-06-22T02:39:22;99746.31;;;13.47;67.84
80137;BME280;69466;55.948;37.484;2023-06-22T02:41:50;99734.22;;;13.55;67.91
80137;BME280;69466;55.948;37.484;2023-06-22T02:44:16;99730.06;;;13.75;67.45
80137;BME280;69466;55.948;37.484;2023-06-22T02:46:42;99721.19;;;13.92;66.88
80137;BME280;69466;55.948;37.484;2023-06-22T02:49:09;99727.09;;;14.12;65.98
80137;BME280;69466;55.948;37.484;2023-06-22T02:51:37;99731.25;;;14.38;65.32
80137;BME280;69466;55.948;37.484;2023-06-22T02:54:06;99722.06;;;15.00;63.67
80137;BME280;69466;55.948;37.484;2023-06-22T02:56:32;99713.94;;;16.66;58.15
80137;BME280;69466;55.948;37.484;2023-06-22T02:59:00;99705.63;;;18.20;52.72
80137;BME280;69466;55.948;37.484;2023-06-22T03:01:29;99714.00;;;19.83;47.28
80137;BME280;69466;55.948;37.484;2023-06-22T03:03:57;99709.69;;;21.79;43.91
80137;BME280;69466;55.948;37.484;2023-06-22T03:06:23;99703.41;;;23.11;40.78
80137;BME280;69466;55.948;37.484;2023-06-22T03:09:00;99703.34;;;23.99;37.72
80137;BME280;69466;55.948;37.484;2023-06-22T03:11:27;99699.03;;;23.93;36.53
80137;BME280;69466;55.948;37.484;2023-06-22T03:13:53;99700.94;;;24.52;35.79
80137;BME280;69466;55.948;37.484;2023-06-22T03:16:19;99698.63;;;25.31;32.60
80137;BME280;69466;55.948;37.484;2023-06-22T03:18:45;99691.47;;;25.52;31.80
80137;BME280;69466;55.948;37.484;2023-06-22T03:21:12;99699.53;;;25.63;31.66
80137;BME280;69466;55.948;37.484;2023-06-22T03:23:38;99695.66;;;25.94;30.84
80137;BME280;69466;55.948;37.484;2023-06-22T03:26:05;99697.00;;;26.28;30.15
80137;BME280;69466;55.948;37.484;2023-06-22T03:28:31;99687.00;;;26.83;29.92
80137;BME280;69466;55.948;37.484;2023-06-22T03:30:59;99694.44;;;26.97;29.92
80137;BME280;69466;55.948;37.484;2023-06-22T03:33:25;99686.06;;;27.22;29.26
80137;BME280;69466;55.948;37.484;2023-06-22T03:35:51;99698.22;;;27.26;29.53
80137;BME280;69466;55.948;37.484;2023-06-22T03:38:17;99689.69;;;27.66;28.53
80137;BME280;69466;55.948;37.484;2023-06-22T03:40:43;99690.44;;;27.92;28.61
80137;BME280;69466;55.948;37.484;2023-06-22T03:43:09;99693.09;;;27.89;27.67
80137;BME280;69466;55.948;37.484;2023-06-22T03:45:35;99697.00;;;27.96;27.60
80137;BME280;69466;55.948;37.484;2023-06-22T03:48:01;99695.28;;;28.30;27.10
80137;BME280;69466;55.948;37.484;2023-06-22T03:50:27;99693.94;;;28.36;26.40
80137;BME280;69466;55.948;37.484;2023-06-22T03:52:53;99690.88;;;28.20;26.84
80137;BME280;69466;55.948;37.484;2023-06-22T03:55:22;99686.56;;;28.31;26.85
80137;BME280;69466;55.948;37.484;2023-06-22T03:57:48;99681.09;;;28.43;26.90
80137;BME280;69466;55.948;37.484;2023-06-22T04:00:14;99679.59;;;29.04;26.06
80137;BME280;69466;55.948;37.484;2023-06-22T04:02:41;99678.41;;;29.26;25.78
80137;BME280;69466;55.948;37.484;2023-06-22T04:05:08;99685.03;;;29.22;24.90
80137;BME280;69466;55.948;37.484;2023-06-22T04:07:34;99670.59;;;28.99;25.27
80137;BME280;69466;55.948;37.484;2023-06-22T04:10:04;99675.34;;;28.40;25.63
80137;BME280;69466;55.948;37.484;2023-06-22T04:12:30;99683.69;;;28.02;26.18
80137;BME280;69466;55.948;37.484;2023-06-22T04:14:56;99674.03;;;27.99;25.66
80137;BME280;69466;55.948;37.484;2023-06-22T04:17:21;99674.84;;;27.91;26.12
80137;BME280;69466;55.948;37.484;2023-06-22T04:19:51;99687.72;;;28.30;25.34
80137;BME280;69466;55.948;37.484;2023-06-22T04:22:16;99681.63;;;28.28;25.64
80137;BME280;69466;55.948;37.484;2023-06-22T04:24:43;99667.31;;;28.38;25.50
80137;BME280;69466;55.948;37.484;2023-06-22T04:27:09;99665.59;;;28.54;25.46
80137;BME280;69466;55.948;37.484;2023-06-22T04:29:35;99681.75;;;28.40;25.85
80137;BME280;69466;55.948;37.484;2023-06-22T04:32:01;99678.44;;;28.09;25.95
80137;BME280;69466;55.948;37.484;2023-06-22T04:34:31;99672.53;;;28.02;26.83
80137;BME280;69466;55.948;37.484;2023-06-22T04:36:57;99673.78;;;27.41;27.64
80137;BME280;69466;55.948;37.484;2023-06-22T04:39:24;99670.22;;;27.49;27.67
80137;BME280;69466;55.948;37.484;2023-06-22T04:41:49;99662.63;;;27.66;27.32
80137;BME280;69466;55.948;37.484;2023-06-22T04:44:18;99661.25;;;27.90;27.60
80137;BME280;69466;55.948;37.484;2023-06-22T04:46:51;99661.59;;;28.35;26.61
80137;BME280;69466;55.948;37.484;2023-06-22T04:49:20;99666.25;;;28.51;26.08
80137;BME280;69466;55.948;37.484;2023-06-22T04:51:47;99663.28;;;28.27;26.91
80137;BME280;69466;55.948;37.484;2023-06-22T04:54:13;99674.59;;;27.75;27.52
80137;BME280;69466;55.948;37.484;2023-06-22T04:56:39;99662.28;;;27.59;28.29
80137;BME280;69466;55.948;37.484;2023-06-22T04:59:06;99663.13;;;27.60;28.29
80137;BME280;69466;55.948;37.484;2023-06-22T05:01:32;99672.13;;;27.74;28.03
80137;BME280;69466;55.948;37.484;2023-06-22T05:03:58;99672.53;;;28.02;28.03
80137;BME280;69466;55.948;37.484;2023-06-22T05:06:27;99672.72;;;28.43;27.50
80137;BME280;69466;55.948;37.484;2023-06-22T05:08:54;99676.06;;;29.37;26.00
80137;BME280;69466;55.948;37.484;2023-06-22T05:11:25;99676.66;;;30.20;25.19
80137;BME280;69466;55.948;37.484;2023-06-22T05:13:51;99687.31;;;30.75;24.17
80137;BME280;69466;55.948;37.484;2023-06-22T05:16:16;99671.19;;;31.37;23.60
80137;BME280;69466;55.948;37.484;2023-06-22T05:18:42;99673.50;;;31.75;23.13
80137;BME280;69466;55.948;37.484;2023-06-22T05:21:09;99667.03;;;32.02;22.99
80137;BME280;69466;55.948;37.484;2023-06-22T05:23:35;99666.47;;;31.96;22.81
80137;BME280;69466;55.948;37.484;2023-06-22T05:26:00;99670.31;;;31.76;23.08
80137;BME280;69466;55.948;37.484;2023-06-22T05:28:26;99665.56;;;32.55;22.28
80137;BME280;69466;55.948;37.484;2023-06-22T05:30:52;99663.03;;;32.81;21.80
80137;BME280;69466;55.948;37.484;2023-06-22T05:33:18;99662.34;;;33.42;20.72
80137;BME280;69466;55.948;37.484;2023-06-22T05:35:44;99663.84;;;33.17;21.70
80137;BME280;69466;55.948;37.484;2023-06-22T05:38:10;99666.94;;;33.12;21.38
80137;BME280;69466;55.948;37.484;2023-06-22T05:40:35;99679.88;;;33.32;20.80
80137;BME280;69466;55.948;37.484;2023-06-22T05:43:01;99664.84;;;33.09;21.18
80137;BME280;69466;55.948;37.484;2023-06-22T05:45:27;99664.22;;;33.34;20.74
80137;BME280;69466;55.948;37.484;2023-06-22T05:47:53;99675.44;;;33.92;20.23
80137;BME280;69466;55.948;37.484;2023-06-22T05:50:19;99671.69;;;33.84;20.69
80137;BME280;69466;55.948;37.484;2023-06-22T05:52:45;99647.66;;;33.91;19.99
80137;BME280;69466;55.948;37.484;2023-06-22T05:55:10;99648.81;;;34.09;20.31
80137;BME280;69466;55.948;37.484;2023-06-22T05:57:36;99671.16;;;34.21;19.71
80137;BME280;69466;55.948;37.484;2023-06-22T06:00:02;99674.66;;;34.60;19.49
80137;BME280;69466;55.948;37.484;2023-06-22T06:02:32;99673.19;;;34.96;19.11
80137;BME280;69466;55.948;37.484;2023-06-22T06:04:59;99663.88;;;35.18;19.58
80137;BME280;69466;55.948;37.484;2023-06-22T06:07:25;99665.50;;;35.52;18.89
80137;BME280;69466;55.948;37.484;2023-06-22T06:09:51;99667.69;;;35.33;19.21
80137;BME280;69466;55.948;37.484;2023-06-22T06:12:17;99643.53;;;35.69;18.84
80137;BME280;69466;55.948;37.484;2023-06-22T06:14:43;99668.25;;;36.16;18.93
80137;BME280;69466;55.948;37.484;2023-06-22T06:17:09;99658.41;;;36.47;18.53
80137;BME280;69466;55.948;37.484;2023-06-22T06:19:35;99660.97;;;36.62;18.04
80137;BME280;69466;55.948;37.484;2023-06-22T06:22:01;99665.84;;;36.62;17.76
80137;BME280;69466;55.948;37.484;2023-06-22T06:24:27;99646.78;;;36.11;17.97
80137;BME280;69466;55.948;37.484;2023-06-22T06:26:52;99658.81;;;36.05;17.75
80137;BME280;69466;55.948;37.484;2023-06-22T06:29:18;99661.78;;;36.15;17.72
80137;BME280;69466;55.948;37.484;2023-06-22T06:31:44;99654.78;;;36.46;16.80
80137;BME280;69466;55.948;37.484;2023-06-22T06:34:12;99660.97;;;36.15;16.91
80137;BME280;69466;55.948;37.484;2023-06-22T06:36:40;99658.66;;;35.87;17.32
80137;BME280;69466;55.948;37.484;2023-06-22T06:39:05;99660.59;;;35.46;17.52
80137;BME280;69466;55.948;37.484;2023-06-22T06:41:31;99655.94;;;35.61;17.01
80137;BME280;69466;55.948;37.484;2023-06-22T06:43:57;99643.81;;;35.27;17.65
80137;BME280;69466;55.948;37.484;2023-06-22T06:46:23;99654.34;;;34.74;18.29
80137;BME280;69466;55.948;37.484;2023-06-22T06:48:49;99653.31;;;34.36;18.32
80137;BME280;69466;55.948;37.484;2023-06-22T06:51:15;99649.09;;;34.23;18.71
80137;BME280;69466;55.948;37.484;2023-06-22T06:53:41;99645.41;;;34.00;19.07
80137;BME280;69466;55.948;37.484;2023-06-22T06:56:06;99647.25;;;33.69;19.19
80137;BME280;69466;55.948;37.484;2023-06-22T06:58:32;99634.22;;;33.42;19.04
80137;BME280;69466;55.948;37.484;2023-06-22T07:00:58;99650.47;;;33.14;19.44
80137;BME280;69466;55.948;37.484;2023-06-22T07:03:24;99647.88;;;33.21;19.42
80137;BME280;69466;55.948;37.484;2023-06-22T07:05:50;99651.03;;;33.38;18.77
80137;BME280;69466;55.948;37.484;2023-06-22T07:08:15;99646.22;;;33.58;19.15
80137;BME280;69466;55.948;37.484;2023-06-22T07:10:41;99645.66;;;33.68;18.65
80137;BME280;69466;55.948;37.484;2023-06-22T07:13:07;99640.13;;;33.75;19.07
80137;BME280;69466;55.948;37.484;2023-06-22T07:15:33;99624.19;;;33.41;18.39
80137;BME280;69466;55.948;37.484;2023-06-22T07:17:59;99646.56;;;32.33;19.91
80137;BME280;69466;55.948;37.484;2023-06-22T07:20:24;99640.06;;;32.44;19.32
80137;BME280;69466;55.948;37.484;2023-06-22T07:22:51;99636.41;;;31.97;20.26
80137;BME280;69466;55.948;37.484;2023-06-22T07:25:17;99641.44;;;31.60;20.22
80137;BME280;69466;55.948;37.484;2023-06-22T07:27:47;99635.34;;;31.30;20.78
80137;BME280;69466;55.948;37.484;2023-06-22T07:30:22;99641.78;;;30.66;21.43
80137;BME280;69466;55.948;37.484;2023-06-22T07:32:47;99641.41;;;30.44;22.25
80137;BME280;69466;55.948;37.484;2023-06-22T07:35:13;99640.41;;;30.48;22.21
80137;BME280;69466;55.948;37.484;2023-06-22T07:37:39;99644.25;;;30.56;21.64
80137;BME280;69466;55.948;37.484;2023-06-22T07:40:06;99641.78;;;30.78;22.35
80137;BME280;69466;55.948;37.484;2023-06-22T07:42:32;99642.38;;;30.23;22.50
80137;BME280;69466;55.948;37.484;2023-06-22T07:45:02;99627.66;;;30.14;22.51
80137;BME280;69466;55.948;37.484;2023-06-22T07:47:31;99634.66;;;30.08;22.87
80137;BME280;69466;55.948;37.484;2023-06-22T07:50:01;99634.41;;;29.89;22.99
80137;BME280;69466;55.948;37.484;2023-06-22T07:52:32;99623.34;;;29.92;22.79
80137;BME280;69466;55.948;37.484;2023-06-22T07:54:58;99629.81;;;29.84;23.07
80137;BME280;69466;55.948;37.484;2023-06-22T07:57:24;99638.16;;;30.05;22.77
80137;BME280;69466;55.948;37.484;2023-06-22T07:59:58;99636.81;;;30.48;22.55
80137;BME280;69466;55.948;37.484;2023-06-22T08:02:25;99615.53;;;30.22;23.00
80137;BME280;69466;55.948;37.484;2023-06-22T08:04:51;99611.09;;;29.97;22.66
80137;BME280;69466;55.948;37.484;2023-06-22T08:07:17;99618.25;;;29.74;22.36
80137;BME280;69466;55.948;37.484;2023-06-22T08:09:48;99609.72;;;29.70;22.90
80137;BME280;69466;55.948;37.484;2023-06-22T08:12:15;99617.13;;;29.87;22.97
80137;BME280;69466;55.948;37.484;2023-06-22T08:14:42;99614.88;;;29.80;23.32
80137;BME280;69466;55.948;37.484;2023-06-22T08:17:09;99610.41;;;30.12;22.51
80137;BME280;69466;55.948;37.484;2023-06-22T08:19:35;99610.75;;;30.35;22.45
80137;BME280;69466;55.948;37.484;2023-06-22T08:22:02;99602.22;;;30.31;22.36
80137;BME280;69466;55.948;37.484;2023-06-22T08:24:28;99609.34;;;30.41;22.40
80137;BME280;69466;55.948;37.484;2023-06-22T08:26:56;99609.00;;;30.43;22.67
80137;BME280;69466;55.948;37.484;2023-06-22T08:29:22;99611.41;;;29.83;22.49
80137;BME280;69466;55.948;37.484;2023-06-22T08:31:48;99605.44;;;29.73;22.93
80137;BME280;69466;55.948;37.484;2023-06-22T08:34:14;99611.41;;;29.83;23.27
80137;BME280;69466;55.948;37.484;2023-06-22T08:36:39;99607.66;;;29.79;23.50
80137;BME280;69466;55.948;37.484;2023-06-22T08:39:10;99598.16;;;30.17;22.88
80137;BME280;69466;55.948;37.484;2023-06-22T08:41:36;99612.38;;;30.00;23.42
80137;BME280;69466;55.948;37.484;2023-06-22T08:44:02;99595.56;;;29.87;23.17
80137;BME280;69466;55.948;37.484;2023-06-22T08:46:29;99595.03;;;29.61;23.84
80137;BME280;69466;55.948;37.484;2023-06-22T08:48:59;99592.28;;;29.85;23.68
80137;BME280;69466;55.948;37.484;2023-06-22T08:51:25;99586.81;;;29.89;23.86
80137;BME280;69466;55.948;37.484;2023-06-22T08:53:51;99583.38;;;29.59;23.79
80137;BME280;69466;55.948;37.484;2023-06-22T08:56:18;99571.38;;;29.71;24.11
80137;BME280;69466;55.948;37.484;2023-06-22T08:58:45;99580.69;;;29.63;24.01
80137;BME280;69466;55.948;37.484;2023-06-22T09:01:11;99584.69;;;29.74;24.58
80137;BME280;69466;55.948;37.484;2023-06-22T09:03:36;99564.03;;;29.66;23.84
80137;BME280;69466;55.948;37.484;2023-06-22T09:06:06;99553.72;;;29.34;24.73
80137;BME280;69466;55.948;37.484;2023-06-22T09:08:35;99561.91;;;29.18;24.72
80137;BME280;69466;55.948;37.484;2023-06-22T09:11:01;99562.72;;;28.86;25.38
80137;BME280;69466;55.948;37.484;2023-06-22T09:13:30;99572.44;;;28.80;25.63
80137;BME280;69466;55.948;37.484;2023-06-22T09:15:56;99569.72;;;28.50;26.68
80137;BME280;69466;55.948;37.484;2023-06-22T09:18:22;99557.81;;;28.33;26.10
80137;BME280;69466;55.948;37.484;2023-06-22T09:20:48;99568.72;;;28.26;26.45
80137;BME280;69466;55.948;37.484;2023-06-22T09:23:15;99560.84;;;28.19;26.26
80137;BME280;69466;55.948;37.484;2023-06-22T09:25:40;99569.06;;;27.77;26.48
80137;BME280;69466;55.948;37.484;2023-06-22T09:28:06;99557.13;;;27.68;26.58
80137;BME280;69466;55.948;37.484;2023-06-22T09:30:32;99546.47;;;27.70;26.98
80137;BME280;69466;55.948;37.484;2023-06-22T09:32:58;99545.56;;;27.58;27.35
80137;BME280;69466;55.948;37.484;2023-06-22T09:35:26;99545.03;;;27.64;27.47
80137;BME280;69466;55.948;37.484;2023-06-22T09:37:52;99551.16;;;27.49;27.55
80137;BME280;69466;55.948;37.484;2023-06-22T09:40:18;99550.28;;;27.66;27.79
80137;BME280;69466;55.948;37.484;2023-06-22T09:42:44;99537.94;;;27.75;27.28
80137;BME280;69466;55.948;37.484;2023-06-22T09:45:10;99555.91;;;27.49;27.98
80137;BME280;69466;55.948;37.484;2023-06-22T09:47:36;99548.38;;;27.32;28.20
80137;BME280;69466;55.948;37.484;2023-06-22T09:50:02;99550.34;;;27.23;28.56
80137;BME280;69466;55.948;37.484;2023-06-22T09:52:30;99544.16;;;27.26;28.54
80137;BME280;69466;55.948;37.484;2023-06-22T09:54:56;99549.88;;;27.29;28.27
80137;BME280;69466;55.948;37.484;2023-06-22T09:57:22;99543.69;;;27.07;28.85
80137;BME280;69466;55.948;37.484;2023-06-22T09:59:48;99542.53;;;26.82;28.89
80137;BME280;69466;55.948;37.484;2023-06-22T10:02:14;99538.78;;;26.86;28.93
80137;BME280;69466;55.948;37.484;2023-06-22T10:04:40;99529.59;;;26.86;29.33
80137;BME280;69466;55.948;37.484;2023-06-22T10:07:06;99536.94;;;27.25;28.61
80137;BME280;69466;55.948;37.484;2023-06-22T10:09:31;99533.69;;;27.06;29.19
80137;BME280;69466;55.948;37.484;2023-06-22T10:11:57;99530.53;;;27.24;29.21
80137;BME280;69466;55.948;37.484;2023-06-22T10:14:23;99525.97;;;27.20;28.74
80137;BME280;69466;55.948;37.484;2023-06-22T10:16:52;99504.56;;;27.41;28.69
80137;BME280;69466;55.948;37.484;2023-06-22T10:19:18;99512.28;;;27.53;28.49
80137;BME280;69466;55.948;37.484;2023-06-22T10:21:47;99513.94;;;27.45;28.75
80137;BME280;69466;55.948;37.484;2023-06-22T10:24:13;99507.34;;;27.41;28.63
80137;BME280;69466;55.948;37.484;2023-06-22T10:26:39;99500.22;;;27.14;28.66
80137;BME280;69466;55.948;37.484;2023-06-22T10:29:05;99506.34;;;27.08;28.82
80137;BME280;69466;55.948;37.484;2023-06-22T10:31:30;99503.56;;;26.99;28.27
80137;BME280;69466;55.948;37.484;2023-06-22T10:33:56;99508.78;;;27.01;28.72
80137;BME280;69466;55.948;37.484;2023-06-22T10:36:22;99503.56;;;26.99;29.16
80137;BME280;69466;55.948;37.484;2023-06-22T10:38:49;99506.34;;;26.90;29.53
80137;BME280;69466;55.948;37.484;2023-06-22T10:41:14;99493.72;;;26.84;29.56
80137;BME280;69466;55.948;37.484;2023-06-22T10:43:41;99498.97;;;26.86;29.09
80137;BME280;69466;55.948;37.484;2023-06-22T10:46:07;99495.19;;;26.73;29.45
80137;BME280;69466;55.948;37.484;2023-06-22T10:48:33;99499.97;;;26.64;29.36
80137;BME280;69466;55.948;37.484;2023-06-22T10:50:59;99495.88;;;26.62;29.17
80137;BME280;69466;55.948;37.484;2023-06-22T10:53:25;99487.03;;;26.42;29.94
80137;BME280;69466;55.948;37.484;2023-06-22T10:55:51;99486.72;;;26.61;29.62
80137;BME280;69466;55.948;37.484;2023-06-22T10:58:18;99467.06;;;26.66;29.13
80137;BME280;69466;55.948;37.484;2023-06-22T11:00:45;99465.06;;;26.75;29.03
80137;BME280;69466;55.948;37.484;2023-06-22T11:03:11;99478.97;;;26.84;29.30
80137;BME280;69466;55.948;37.484;2023-06-22T11:05:40;99472.28;;;26.94;29.21
80137;BME280;69466;55.948;37.484;2023-06-22T11:08:07;99457.38;;;26.72;29.13
80137;BME280;69466;55.948;37.484;2023-06-22T11:10:33;99464.75;;;26.60;28.83
80137;BME280;69466;55.948;37.484;2023-06-22T11:12:59;99465.91;;;26.50;28.97
80137;BME280;69466;55.948;37.484;2023-06-22T11:15:25;99468.06;;;26.53;28.59
80137;BME280;69466;55.948;37.484;2023-06-22T11:17:51;99449.72;;;26.52;28.61
80137;BME280;69466;55.948;37.484;2023-06-22T11:20:17;99447.22;;;26.59;28.53
80137;BME280;69466;55.948;37.484;2023-06-22T11:22:43;99448.03;;;26.68;28.87
80137;BME280;69466;55.948;37.484;2023-06-22T11:25:10;99447.41;;;26.71;28.55
80137;BME280;69466;55.948;37.484;2023-06-22T11:27:37;99430.38;;;26.47;28.87
80137;BME280;69466;55.948;37.484;2023-06-22T11:30:04;99443.31;;;26.60;29.20
80137;BME280;69466;55.948;37.484;2023-06-22T11:32:30;99440.38;;;26.57;29.33
80137;BME280;69466;55.948;37.484;2023-06-22T11:34:56;99430.88;;;26.49;29.12
80137;BME280;69466;55.948;37.484;2023-06-22T11:37:22;99430.22;;;26.26;29.58
80137;BME280;69466;55.948;37.484;2023-06-22T11:39:48;99420.41;;;26.03;29.85
80137;BME280;69466;55.948;37.484;2023-06-22T11:42:14;99415.53;;;26.26;29.76
80137;BME280;69466;55.948;37.484;2023-06-22T11:44:42;99417.16;;;26.44;29.70
80137;BME280;69466;55.948;37.484;2023-06-22T11:47:10;99420.09;;;26.48;29.51
80137;BME280;69466;55.948;37.484;2023-06-22T11:49:36;99415.84;;;26.33;29.82
80137;BME280;69466;55.948;37.484;2023-06-22T11:52:02;99400.44;;;26.35;29.58
80137;BME280;69466;55.948;37.484;2023-06-22T11:54:28;99415.97;;;26.62;29.33
80137;BME280;69466;55.948;37.484;2023-06-22T11:56:54;99409.25;;;26.55;29.26
80137;BME280;69466;55.948;37.484;2023-06-22T11:59:23;99408.75;;;26.61;28.61
80137;BME280;69466;55.948;37.484;2023-06-22T12:01:49;99403.53;;;26.60;28.83
80137;BME280;69466;55.948;37.484;2023-06-22T12:04:18;99398.91;;;26.72;29.32
80137;BME280;69466;55.948;37.484;2023-06-22T12:06:44;99348.88;;;26.46;29.67
80137;BME280;69466;55.948;37.484;2023-06-22T12:09:15;99365.88;;;26.62;29.93
80137;BME280;69466;55.948;37.484;2023-06-22T12:11:41;99352.75;;;26.63;29.38
80137;BME280;69466;55.948;37.484;2023-06-22T12:14:06;99392.50;;;26.89;29.39
80137;BME280;69466;55.948;37.484;2023-06-22T12:16:33;99359.41;;;26.79;29.65
80137;BME280;69466;55.948;37.484;2023-06-22T12:18:58;99378.41;;;26.94;29.23
80137;BME280;69466;55.948;37.484;2023-06-22T12:21:24;99372.66;;;26.90;29.38
80137;BME280;69466;55.948;37.484;2023-06-22T12:23:50;99371.06;;;26.89;29.81
80137;BME280;69466;55.948;37.484;2023-06-22T12:26:16;99341.59;;;26.63;29.94
80137;BME280;69466;55.948;37.484;2023-06-22T12:28:42;99372.03;;;26.85;29.91
80137;BME280;69466;55.948;37.484;2023-06-22T12:31:08;99351.38;;;26.77;29.68
80137;BME280;69466;55.948;37.484;2023-06-22T12:33:34;99358.75;;;26.82;29.97
80137;BME280;69466;55.948;37.484;2023-06-22T12:36:00;99342.91;;;26.74;29.75
80137;BME280;69466;55.948;37.484;2023-06-22T12:38:30;99358.47;;;26.75;30.29
80137;BME280;69466;55.948;37.484;2023-06-22T12:40:56;99349.28;;;26.74;29.85
80137;BME280;69466;55.948;37.484;2023-06-22T12:43:22;99348.44;;;26.82;29.71
80137;BME280;69466;55.948;37.484;2023-06-22T12:45:48;99333.53;;;26.87;30.23
80137;BME280;69466;55.948;37.484;2023-06-22T12:48:14;99345.16;;;26.89;29.94
80137;BME280;69466;55.948;37.484;2023-06-22T12:50:40;99355.50;;;26.88;29.32
80137;BME280;69466;55.948;37.484;2023-06-22T12:53:05;99342.03;;;26.82;29.61